KRBL

Red Bluff Municipal Airport

Red Bluff, California, USA
METAR KRBL 242054Z AUTO 33010G18KT 10SM CLR 33/M03 A2983 RMK AO2 SLP096 T03331028 58018
Observed Flight Rules
Sep-24 @ 20:54 UTC (51 minutes ago) Visual Flight Rules
Wind Visibility Clouds
330° at 10 knots
 Gusting to 18 knots
10 miles
  • Clear skies
Temperatures Readings
Current 33°C / 91°F
Dewpoint -3°C / 27°F
Humidity 10%
Altimeter 29.83" Hg
Pressure 1009.6 hPa
Elevation 104
METAR KRBL 242054Z AUTO 33010G18KT 10SM CLR 33/M03 A2983 RMK AO2 SLP096 T03331028 58018
Observed Flight Rules
Sep-24 @ 20:54 UTC
(51 minutes ago)
VFR
Wind Visibility
330° at 10 knots
 Gusting to 18 knots
10 miles
Clouds
  • Clear skies
Temperature Dewpoint
33°C / 91°F -3°C / 27°F
Humidity Altimeter Pressure
10% 29.83" Hg 1009.6 hPa